Time;durP1;ratioP1;P1;durP2;ratioP2;P2;SDS_P1;SDS_P2;PMS_P1;PMS_P2;Temp;Humidity;BMP_temperature;BMP_pressure;BME280_temperature;BME280_humidity;BME280_pressure;Samples;Min_cycle;Max_cycle;Signal;HPM_P1;HPM_P2
2023/01/25 00:01:51;;;;;;;84.35;31.15;;;;;;;0.26;100.00;102465.63;5086665;28;20024;-71
2023/01/25 00:04:20;;;;;;;90.25;31.23;;;;;;;0.26;100.00;102466.47;5057179;28;20032;-71
2023/01/25 00:06:46;;;;;;;90.97;31.70;;;;;;;0.28;100.00;102471.75;5055990;28;20025;-71
2023/01/25 00:09:12;;;;;;;89.50;31.80;;;;;;;0.26;100.00;102468.38;5056730;28;20032;-71
2023/01/25 00:11:37;;;;;;;93.32;33.83;;;;;;;0.25;100.00;102467.50;5057327;28;20020;-72
2023/01/25 00:14:03;;;;;;;86.18;30.67;;;;;;;0.25;100.00;102477.56;5039591;28;20550;-71
2023/01/25 00:16:29;;;;;;;89.45;31.23;;;;;;;0.26;100.00;102468.38;5063746;28;20031;-71
2023/01/25 00:18:54;;;;;;;92.45;31.13;;;;;;;0.22;100.00;102474.19;5049331;28;20032;-72
2023/01/25 00:21:21;;;;;;;83.78;31.35;;;;;;;0.26;100.00;102474.69;5028897;28;20032;-71
2023/01/25 00:23:46;;;;;;;92.93;32.28;;;;;;;0.23;100.00;102485.97;5046311;28;20052;-71
2023/01/25 00:26:12;;;;;;;93.28;33.97;;;;;;;0.24;100.00;102482.19;5054848;28;20028;-71
2023/01/25 00:28:38;;;;;;;90.30;32.17;;;;;;;0.24;100.00;102481.34;5073109;28;20473;-72
2023/01/25 00:31:04;;;;;;;89.60;30.88;;;;;;;0.25;100.00;102481.16;5059525;28;20370;-72
2023/01/25 00:33:37;;;;;;;97.50;33.30;;;;;;;0.25;100.00;102483.88;5034877;28;20508;-71
2023/01/25 00:36:38;;;;;;;90.38;33.17;;;;;;;0.27;100.00;102475.53;5069632;28;20054;-71
2023/01/25 00:39:04;;;;;;;88.50;30.65;;;;;;;0.29;100.00;102473.47;5056327;28;20044;-71
2023/01/25 00:41:30;;;;;;;93.40;31.35;;;;;;;0.27;100.00;102470.91;5049263;28;20112;-71
2023/01/25 00:43:55;;;;;;;93.35;33.30;;;;;;;0.26;100.00;102477.41;5059236;28;20020;-71
2023/01/25 00:46:21;;;;;;;90.90;34.50;;;;;;;0.27;100.00;102473.63;5053864;28;20068;-71
2023/01/25 00:48:46;;;;;;;88.60;31.95;;;;;;;0.26;100.00;102471.94;5042869;28;20040;-71
2023/01/25 00:51:12;;;;;;;89.55;32.28;;;;;;;0.27;100.00;102476.38;5059887;28;20031;-71
2023/01/25 00:53:37;;;;;;;95.32;33.38;;;;;;;0.25;100.00;102472.09;5061834;28;20020;-72
2023/01/25 00:56:03;;;;;;;91.80;30.30;;;;;;;0.26;100.00;102473.84;5043233;28;20029;-71
2023/01/25 00:58:29;;;;;;;99.15;33.75;;;;;;;0.25;100.00;102472.94;5041168;28;20579;-71
2023/01/25 01:00:54;;;;;;;86.20;31.10;;;;;;;0.27;100.00;102470.06;5065335;28;20021;-71
2023/01/25 01:03:20;;;;;;;103.47;32.63;;;;;;;0.26;100.00;102465.63;5042874;28;20392;-71
2023/01/25 01:05:45;;;;;;;86.25;31.83;;;;;;;0.27;100.00;102470.06;5046402;28;20035;-72
2023/01/25 01:08:14;;;;;;;90.00;32.65;;;;;;;0.27;100.00;102467.31;5026300;28;20029;-71
2023/01/25 01:10:40;;;;;;;86.72;30.30;;;;;;;0.28;100.00;102467.16;5043032;28;20025;-71
2023/01/25 01:13:06;;;;;;;83.53;30.50;;;;;;;0.30;100.00;102466.97;5026086;28;21580;-71
2023/01/25 01:15:34;;;;;;;86.65;31.35;;;;;;;0.29;100.00;102465.28;5048363;28;20036;-71
2023/01/25 01:18:00;;;;;;;91.22;32.90;;;;;;;0.28;100.00;102469.91;5042955;28;20082;-72
2023/01/25 01:20:25;;;;;;;100.32;32.60;;;;;;;0.28;100.00;102464.44;5049301;28;20024;-71
2023/01/25 01:22:54;;;;;;;97.43;33.08;;;;;;;0.29;100.00;102473.47;5061556;28;20036;-71
2023/01/25 01:25:19;;;;;;;90.85;31.13;;;;;;;0.30;100.00;102469.69;5046369;28;20024;-71
2023/01/25 01:27:44;;;;;;;92.28;32.95;;;;;;;0.30;100.00;102472.44;5062386;28;20511;-71
2023/01/25 01:30:10;;;;;;;94.40;31.58;;;;;;;0.31;100.00;102465.97;5062318;28;20393;-71
2023/01/25 01:32:36;;;;;;;93.53;31.45;;;;;;;0.30;100.00;102466.97;5060237;28;20087;-72
2023/01/25 01:35:02;;;;;;;84.25;29.17;;;;;;;0.30;100.00;102461.50;5031465;28;20444;-72
2023/01/25 01:37:27;;;;;;;93.80;31.48;;;;;;;0.29;100.00;102470.75;5084221;28;20051;-72
2023/01/25 01:39:53;;;;;;;101.57;34.30;;;;;;;0.28;100.00;102469.00;5078863;28;20055;-71
2023/01/25 01:42:18;;;;;;;103.38;34.53;;;;;;;0.26;100.00;102465.63;5091096;28;20028;-71
2023/01/25 01:44:46;;;;;;;98.65;34.15;;;;;;;0.27;100.00;102464.59;5108514;28;20031;-71
2023/01/25 01:47:19;;;;;;;100.85;34.28;;;;;;;0.28;100.00;102463.56;5083398;28;20020;-71
2023/01/25 01:49:49;;;;;;;98.57;33.45;;;;;;;0.27;100.00;102464.59;5085054;28;20032;-72
2023/01/25 01:52:15;;;;;;;98.32;32.83;;;;;;;0.27;100.00;102461.84;5066698;28;20111;-72
2023/01/25 01:54:45;;;;;;;116.90;35.97;;;;;;;0.28;100.00;102460.81;5082643;28;20030;-72
2023/01/25 01:57:30;;;;;;;118.60;37.97;;;;;;;0.22;100.00;102457.78;5082333;28;20035;-71
2023/01/25 01:59:59;;;;;;;117.55;37.30;;;;;;;0.22;100.00;102456.91;5067479;28;20032;-71
2023/01/25 02:02:24;;;;;;;120.25;37.97;;;;;;;0.22;100.00;102457.78;5066138;28;20028;-71
2023/01/25 02:04:50;;;;;;;129.18;40.83;;;;;;;0.22;100.00;102462.38;5078618;28;20036;-72
2023/01/25 02:07:19;;;;;;;115.40;39.20;;;;;;;0.20;100.00;102456.28;5082245;28;20122;-71
2023/01/25 02:09:45;;;;;;;124.90;39.28;;;;;;;0.20;100.00;102454.38;5092026;28;20373;-71
2023/01/25 02:12:10;;;;;;;121.20;38.45;;;;;;;0.20;100.00;102457.09;5073395;28;20085;-71
2023/01/25 02:14:36;;;;;;;114.38;37.05;;;;;;;0.20;100.00;102457.09;5090406;28;20028;-72
2023/01/25 02:17:02;;;;;;;115.60;38.15;;;;;;;0.21;100.00;102455.22;5083413;28;20040;-72
2023/01/25 02:19:57;;;;;;;119.20;37.15;;;;;;;0.18;100.00;102456.44;5068399;28;20059;-71
2023/01/25 02:22:30;;;;;;;130.07;39.60;;;;;;;0.15;100.00;102456.78;5061915;28;20040;-72
2023/01/25 02:25:09;;;;;;;120.28;38.03;;;;;;;0.16;100.00;102457.63;5068924;28;20036;-71
2023/01/25 02:27:38;;;;;;;122.50;37.60;;;;;;;0.14;100.00;102460.56;5078475;28;20025;-72
2023/01/25 02:30:04;;;;;;;124.63;38.95;;;;;;;0.14;100.00;102466.03;5044299;28;20020;-72
2023/01/25 02:32:31;;;;;;;124.05;39.92;;;;;;;0.13;100.00;102463.47;5061124;28;20126;-71
2023/01/25 02:34:56;;;;;;;125.78;38.15;;;;;;;0.12;100.00;102468.06;5094698;28;20103;-71
2023/01/25 02:37:22;;;;;;;126.10;38.03;;;;;;;0.12;100.00;102461.75;5082522;28;20123;-72
2023/01/25 02:39:47;;;;;;;120.72;37.33;;;;;;;0.10;100.00;102470.13;5056743;28;20582;-71
2023/01/25 02:42:13;;;;;;;129.77;39.13;;;;;;;0.11;100.00;102471.84;5073999;28;20081;-71
2023/01/25 02:44:38;;;;;;;127.15;37.58;;;;;;;0.07;100.00;102470.47;5085463;28;20141;-71
2023/01/25 02:47:04;;;;;;;123.40;36.63;;;;;;;0.08;100.00;102466.72;5065829;28;20032;-71
2023/01/25 02:49:29;;;;;;;117.72;38.20;;;;;;;0.10;100.00;102470.13;5066212;28;20028;-71
2023/01/25 02:51:56;;;;;;;109.38;35.80;;;;;;;0.13;100.00;102463.47;5090822;28;20020;-71
2023/01/25 02:54:22;;;;;;;111.47;36.65;;;;;;;0.10;100.00;102464.66;5114208;28;20042;-72
2023/01/25 02:56:47;;;;;;;125.25;37.92;;;;;;;0.11;100.00;102474.59;5032263;28;20032;-71
2023/01/25 02:59:13;;;;;;;113.75;36.13;;;;;;;0.11;100.00;102473.69;5094345;28;20066;-71
2023/01/25 03:01:39;;;;;;;120.38;36.78;;;;;;;0.09;100.00;102462.13;5094166;28;20024;-71
2023/01/25 03:04:05;;;;;;;129.90;37.90;;;;;;;0.09;100.00;102465.69;5106838;28;20168;-71
2023/01/25 03:06:31;;;;;;;122.25;37.53;;;;;;;0.10;100.00;102464.66;5082256;28;20031;-72
2023/01/25 03:08:57;;;;;;;123.45;36.30;;;;;;;0.09;100.00;102462.13;5094294;28;20552;-71
2023/01/25 03:11:22;;;;;;;108.10;34.20;;;;;;;0.11;100.00;102460.91;5090503;28;20027;-71
2023/01/25 03:13:48;;;;;;;109.40;34.25;;;;;;;0.09;100.00;102454.78;5053164;28;20028;-71
2023/01/25 03:16:13;;;;;;;124.43;36.00;;;;;;;0.05;100.00;102455.28;5048548;28;20068;-71
2023/01/25 03:18:39;;;;;;;113.57;34.80;;;;;;;0.04;100.00;102462.63;5103405;28;20111;-71
2023/01/25 03:21:10;;;;;;;121.20;36.80;;;;;;;0.05;100.00;102461.59;5046114;28;20035;-71
2023/01/25 03:23:35;;;;;;;113.55;35.78;;;;;;;0.06;100.00;102459.75;5085020;28;20038;-72
2023/01/25 03:26:15;;;;;;;118.57;35.13;;;;;;;0.05;100.00;102469.78;5061119;28;20024;-71
2023/01/25 03:28:40;;;;;;;115.13;35.15;;;;;;;0.05;100.00;102450.66;5081035;28;20039;-72
2023/01/25 03:31:07;;;;;;;108.38;34.90;;;;;;;0.06;100.00;102457.84;5067464;28;20084;-71
2023/01/25 03:33:32;;;;;;;95.57;30.92;;;;;;;0.06;100.00;102449.66;5060215;28;20055;-71
2023/01/25 03:35:58;;;;;;;101.53;33.75;;;;;;;0.10;100.00;102445.53;5076974;28;20572;-71
2023/01/25 03:38:23;;;;;;;101.45;33.15;;;;;;;0.08;100.00;102446.75;5076897;28;20535;-72
2023/01/25 03:40:49;;;;;;;107.88;35.15;;;;;;;0.08;100.00;102444.00;5039844;28;20108;-72
2023/01/25 03:43:14;;;;;;;102.85;32.55;;;;;;;0.08;100.00;102444.00;5084056;28;20089;-71
2023/01/25 03:45:40;;;;;;;104.25;32.65;;;;;;;0.07;100.00;102443.16;5039881;28;20056;-71
2023/01/25 03:48:06;;;;;;;112.57;33.60;;;;;;;0.08;100.00;102450.31;5050641;28;20028;-72
2023/01/25 03:50:31;;;;;;;100.38;32.45;;;;;;;0.10;100.00;102441.97;5039639;28;20040;-72
2023/01/25 03:53:08;;;;;;;110.72;34.33;;;;;;;0.06;100.00;102433.28;5067475;28;20074;-72
2023/01/25 03:55:34;;;;;;;98.20;32.00;;;;;;;0.07;100.00;102425.91;5056526;28;20627;-71
2023/01/25 03:57:59;;;;;;;95.65;31.33;;;;;;;0.10;100.00;102434.59;5065902;28;20115;-71
2023/01/25 04:00:25;;;;;;;99.95;33.40;;;;;;;0.09;100.00;102432.91;5080762;28;20028;-72
2023/01/25 04:02:50;;;;;;;98.50;31.95;;;;;;;0.09;100.00;102426.59;5065614;28;20025;-71
2023/01/25 04:05:16;;;;;;;104.90;31.73;;;;;;;0.10;100.00;102425.56;5060273;28;20039;-71
2023/01/25 04:07:41;;;;;;;106.15;32.30;;;;;;;0.04;100.00;102423.53;5073588;28;20017;-71
2023/01/25 04:10:08;;;;;;;103.57;32.55;;;;;;;0.03;100.00;102424.56;5045989;28;20357;-72
2023/01/25 04:12:33;;;;;;;95.47;32.95;;;;;;;0.01;100.00;102422.03;5060681;28;20025;-71
2023/01/25 04:14:58;;;;;;;110.05;31.77;;;;;;;-0.02;100.00;102425.97;5060477;28;20024;-71
2023/01/25 04:17:24;;;;;;;106.45;30.23;;;;;;;-0.01;100.00;102413.16;5064151;28;20032;-71
2023/01/25 04:19:49;;;;;;;99.50;30.80;;;;;;;-0.03;100.00;102409.72;5057282;28;20492;-71
2023/01/25 04:22:15;;;;;;;92.70;28.35;;;;;;;-0.03;100.00;102409.72;5046560;28;20032;-71
2023/01/25 04:24:41;;;;;;;95.78;28.85;;;;;;;-0.01;100.00;102415.88;5043890;28;20021;-71
2023/01/25 04:27:07;;;;;;;98.72;32.47;;;;;;;-0.03;100.00;102412.47;5063734;28;20054;-71
2023/01/25 04:29:33;;;;;;;99.57;32.15;;;;;;;-0.05;100.00;102414.53;5047122;28;20054;-72
2023/01/25 04:31:59;;;;;;;101.93;33.97;;;;;;;-0.08;100.00;102415.75;5060487;28;20032;-71
2023/01/25 04:34:24;;;;;;;90.68;29.02;;;;;;;-0.06;100.00;102410.94;5043496;28;20063;-71
2023/01/25 04:36:50;;;;;;;115.88;34.53;;;;;;;-0.06;100.00;102410.09;5055117;28;20101;-72
2023/01/25 04:39:15;;;;;;;102.85;33.40;;;;;;;-0.05;100.00;102411.81;5076809;28;20097;-71
2023/01/25 04:41:41;;;;;;;119.47;36.67;;;;;;;-0.09;100.00;102411.28;5097253;28;20032;-71
2023/01/25 04:44:06;;;;;;;116.25;36.20;;;;;;;-0.07;100.00;102411.97;5105680;28;20028;-71
2023/01/25 04:46:32;;;;;;;119.93;35.83;;;;;;;-0.07;100.00;102409.25;5066853;28;20042;-71
2023/01/25 04:48:57;;;;;;;122.70;36.80;;;;;;;-0.11;100.00;102399.72;5086442;28;20034;-72
2023/01/25 04:51:23;;;;;;;118.38;35.80;;;;;;;-0.09;100.00;102402.25;5089354;28;20089;-72
2023/01/25 04:53:49;;;;;;;115.35;36.00;;;;;;;-0.09;100.00;102404.97;5060408;28;20036;-71
2023/01/25 04:56:14;;;;;;;124.35;35.88;;;;;;;-0.12;100.00;102397.16;5066411;28;20484;-71
2023/01/25 04:58:40;;;;;;;116.97;35.35;;;;;;;-0.13;100.00;102400.91;5079311;28;20097;-72
2023/01/25 05:01:06;;;;;;;121.18;38.65;;;;;;;-0.14;100.00;102400.06;5056392;28;20032;-71
2023/01/25 05:03:31;;;;;;;114.18;35.45;;;;;;;-0.14;100.00;102396.47;5083366;28;20455;-72
2023/01/25 05:05:57;;;;;;;117.00;35.22;;;;;;;-0.12;100.00;102399.88;5055606;28;20024;-71
2023/01/25 05:08:22;;;;;;;116.60;36.22;;;;;;;-0.12;100.00;102394.41;5076651;28;20032;-71
2023/01/25 05:10:48;;;;;;;122.18;37.55;;;;;;;-0.14;100.00;102391.88;5066384;28;20038;-71
2023/01/25 05:13:13;;;;;;;121.70;37.97;;;;;;;-0.12;100.00;102394.41;5082664;28;20028;-71
2023/01/25 05:15:39;;;;;;;117.82;35.92;;;;;;;-0.14;100.00;102394.59;5089389;28;20028;-71
2023/01/25 05:18:04;;;;;;;127.03;38.58;;;;;;;-0.13;100.00;102388.09;5079153;28;20031;-71
2023/01/25 05:20:30;;;;;;;121.75;38.00;;;;;;;-0.16;100.00;102396.66;5073335;28;20063;-71
2023/01/25 05:22:55;;;;;;;137.15;37.83;;;;;;;-0.14;100.00;102385.53;5052144;28;20499;-71
2023/01/25 05:28:05;;;;;;;124.47;38.25;;;;;;;-0.17;100.00;102383.16;5113998;28;20020;-72
2023/01/25 05:30:31;;;;;;;121.70;36.63;;;;;;;-0.22;100.00;102375.53;5065820;28;20028;-71
2023/01/25 05:32:57;;;;;;;129.13;37.72;;;;;;;-0.21;100.00;102379.09;5077380;28;20061;-71
2023/01/25 05:35:22;;;;;;;115.15;33.90;;;;;;;-0.21;100.00;102379.09;5072403;28;20031;-72
2023/01/25 05:37:47;;;;;;;126.75;37.97;;;;;;;-0.25;100.00;102384.91;5095157;28;20097;-71
2023/01/25 05:40:13;;;;;;;122.78;38.22;;;;;;;-0.27;100.00;102376.03;5095754;28;20073;-71
2023/01/25 05:42:39;;;;;;;134.95;40.22;;;;;;;-0.26;100.00;102377.72;5095832;28;20502;-71
2023/01/25 05:45:05;;;;;;;125.40;37.08;;;;;;;-0.25;100.00;102384.06;5083063;28;20046;-71
2023/01/25 05:47:30;;;;;;;135.82;41.78;;;;;;;-0.26;100.00;102385.94;5094049;28;20035;-72
2023/01/25 05:49:56;;;;;;;127.45;40.25;;;;;;;-0.27;100.00;102386.97;5078690;28;20028;-72
2023/01/25 05:52:21;;;;;;;118.40;38.00;;;;;;;-0.27;100.00;102394.31;5081505;28;20028;-72
2023/01/25 05:54:47;;;;;;;123.38;36.78;;;;;;;-0.26;100.00;102382.34;5065779;28;20036;-71
2023/01/25 05:57:13;;;;;;;128.70;36.72;;;;;;;-0.28;100.00;102392.59;5098392;28;20064;-72
2023/01/25 05:59:39;;;;;;;126.90;38.10;;;;;;;-0.30;100.00;102384.59;5087287;28;20063;-72
2023/01/25 06:02:04;;;;;;;127.57;38.63;;;;;;;-0.31;100.00;102396.53;5091846;28;20531;-71
2023/01/25 06:04:31;;;;;;;118.65;35.25;;;;;;;-0.29;100.00;102390.91;5073930;28;20023;-72
2023/01/25 06:06:56;;;;;;;128.85;39.42;;;;;;;-0.29;100.00;102393.63;5079595;28;20123;-71
2023/01/25 06:09:22;;;;;;;138.38;40.83;;;;;;;-0.30;100.00;102398.25;5087661;28;20032;-71
2023/01/25 06:11:47;;;;;;;134.02;40.80;;;;;;;-0.28;100.00;102395.31;5078385;28;20032;-71
2023/01/25 06:14:13;;;;;;;121.88;38.15;;;;;;;-0.27;100.00;102386.13;5070805;28;20052;-71
2023/01/25 06:16:39;;;;;;;124.30;37.22;;;;;;;-0.29;100.00;102394.47;5094572;28;20055;-71
2023/01/25 06:19:05;;;;;;;131.77;41.75;;;;;;;-0.28;100.00;102396.19;5048286;28;20030;-71
2023/01/25 06:21:31;;;;;;;118.38;40.47;;;;;;;-0.26;100.00;102399.59;5064490;28;20031;-71
2023/01/25 06:23:56;;;;;;;135.95;42.92;;;;;;;-0.31;100.00;102396.53;5087942;28;20084;-71
2023/01/25 06:26:22;;;;;;;125.65;42.13;;;;;;;-0.28;100.00;102400.78;5095200;28;20026;-71
2023/01/25 06:28:47;;;;;;;134.02;42.33;;;;;;;-0.31;100.00;102401.13;5060998;28;20028;-71
2023/01/25 06:31:14;;;;;;;133.07;43.83;;;;;;;-0.32;100.00;102393.97;5075144;28;20016;-71
2023/01/25 06:33:41;;;;;;;125.32;41.90;;;;;;;-0.34;100.00;102391.41;5052810;28;20497;-71
2023/01/25 06:36:13;;;;;;;140.70;44.70;;;;;;;-0.32;100.00;102393.97;5081056;28;20062;-71
2023/01/25 06:38:39;;;;;;;128.52;42.28;;;;;;;-0.33;100.00;102401.34;5060948;28;20189;-72
2023/01/25 06:41:06;;;;;;;127.68;40.60;;;;;;;-0.34;100.00;102394.16;5076795;28;20088;-71
2023/01/25 06:43:32;;;;;;;134.23;43.15;;;;;;;-0.34;100.00;102396.03;5081153;28;20028;-71
2023/01/25 06:46:04;;;;;;;116.38;38.50;;;;;;;-0.31;100.00;102393.78;5042095;28;20034;-72
2023/01/25 06:48:30;;;;;;;127.07;42.15;;;;;;;-0.32;100.00;102394.81;5054245;28;20066;-71
2023/01/25 06:50:57;;;;;;;134.63;43.67;;;;;;;-0.31;100.00;102401.97;5060756;28;20475;-71
2023/01/25 06:53:24;;;;;;;122.45;40.05;;;;;;;-0.34;100.00;102399.59;5057618;28;20027;-71
2023/01/25 06:55:57;;;;;;;129.73;39.55;;;;;;;-0.36;100.00;102404.41;5044282;28;20070;-71
2023/01/25 06:58:22;;;;;;;135.02;41.75;;;;;;;-0.34;100.00;102396.88;5076067;28;20102;-72
2023/01/25 07:00:48;;;;;;;125.50;43.88;;;;;;;-0.34;100.00;102396.03;5072969;28;20495;-71
2023/01/25 07:03:13;;;;;;;141.20;46.70;;;;;;;-0.36;100.00;102392.63;5094228;28;20044;-71
2023/01/25 07:05:39;;;;;;;121.28;41.20;;;;;;;-0.35;100.00;102406.09;5086809;28;20028;-71
2023/01/25 07:08:04;;;;;;;117.10;39.95;;;;;;;-0.35;100.00;102399.81;5071915;28;20035;-71
2023/01/25 07:10:30;;;;;;;123.43;41.42;;;;;;;-0.34;100.00;102402.34;5077497;28;20035;-71
2023/01/25 07:12:55;;;;;;;125.00;41.80;;;;;;;-0.34;100.00;102396.88;5092079;28;20035;-71
2023/01/25 07:15:21;;;;;;;125.15;41.55;;;;;;;-0.36;100.00;102401.69;5060336;28;20039;-71
2023/01/25 07:17:46;;;;;;;116.45;39.78;;;;;;;-0.33;100.00;102404.06;5073769;28;20031;-71
2023/01/25 07:20:12;;;;;;;121.32;39.30;;;;;;;-0.31;100.00;102406.59;5051686;28;20020;-71
2023/01/25 07:22:37;;;;;;;118.55;40.67;;;;;;;-0.31;100.00;102417.50;5077704;28;20034;-71
2023/01/25 07:25:03;;;;;;;133.05;43.15;;;;;;;-0.33;100.00;102409.53;5084040;28;20054;-71
2023/01/25 07:27:32;;;;;;;140.88;43.33;;;;;;;-0.37;100.00;102408.16;5097350;28;20027;-71
2023/01/25 07:29:57;;;;;;;122.07;39.85;;;;;;;-0.35;100.00;102421.63;5055825;28;20024;-71
2023/01/25 07:32:23;;;;;;;122.43;39.55;;;;;;;-0.38;100.00;102411.06;5046717;28;20361;-71
2023/01/25 07:34:49;;;;;;;129.73;39.45;;;;;;;-0.38;100.00;102411.91;5084769;28;20028;-77
2023/01/25 07:37:14;;;;;;;115.40;38.28;;;;;;;-0.40;100.00;102413.13;5074399;28;20124;-72
2023/01/25 07:39:46;;;;;;;114.72;38.40;;;;;;;-0.37;100.00;102416.34;5043751;28;20042;-72
2023/01/25 07:42:12;;;;;;;130.80;39.88;;;;;;;-0.38;100.00;102422.84;5093899;28;20031;-72
2023/01/25 07:44:37;;;;;;;111.43;36.90;;;;;;;-0.37;100.00;102418.22;5075683;28;20138;-72
2023/01/25 07:47:03;;;;;;;122.45;40.10;;;;;;;-0.39;100.00;102423.00;5077488;28;20020;-71
2023/01/25 07:49:28;;;;;;;118.88;38.15;;;;;;;-0.38;100.00;102425.56;5084594;28;20088;-71
2023/01/25 07:51:54;;;;;;;133.30;42.50;;;;;;;-0.41;100.00;102428.66;5079942;28;20027;-71
2023/01/25 07:54:19;;;;;;;117.85;38.63;;;;;;;-0.40;100.00;102433.06;5084353;28;20035;-71
2023/01/25 07:56:45;;;;;;;115.38;37.92;;;;;;;-0.42;100.00;102424.19;5099604;28;20032;-71
2023/01/25 07:59:10;;;;;;;121.32;39.78;;;;;;;-0.39;100.00;102425.72;5080764;28;20032;-71
2023/01/25 08:01:36;;;;;;;118.85;38.80;;;;;;;-0.40;100.00;102424.88;5061673;28;20508;-71
2023/01/25 08:04:02;;;;;;;106.82;36.83;;;;;;;-0.38;100.00;102425.56;5072456;28;20493;-72
2023/01/25 08:06:30;;;;;;;115.47;38.13;;;;;;;-0.37;100.00;102427.25;5094673;28;20032;-72
2023/01/25 08:08:57;;;;;;;114.10;38.22;;;;;;;-0.38;100.00;102417.38;5101177;28;20047;-72
2023/01/25 08:11:24;;;;;;;127.28;41.05;;;;;;;-0.44;100.00;102420.81;5066883;28;20040;-72
2023/01/25 08:13:50;;;;;;;110.85;37.90;;;;;;;-0.40;100.00;102419.44;5067676;28;20373;-71
2023/01/25 08:16:16;;;;;;;105.57;37.75;;;;;;;-0.38;100.00;102422.84;5053946;28;20024;-71
2023/01/25 08:18:42;;;;;;;115.07;40.67;;;;;;;-0.38;100.00;102424.72;5074400;28;20050;-71
2023/01/25 08:21:08;;;;;;;118.78;41.33;;;;;;;-0.41;100.00;102422.34;5075994;28;20028;-71
2023/01/25 08:23:33;;;;;;;134.77;43.17;;;;;;;-0.43;100.00;102421.66;5071710;28;20031;-71
2023/01/25 08:26:05;;;;;;;115.07;39.28;;;;;;;-0.39;100.00;102414.81;5064581;28;20032;-71
2023/01/25 08:28:31;;;;;;;91.33;31.40;;;;;;;-0.38;100.00;102419.25;5062724;28;20177;-71
2023/01/25 08:31:17;;;;;;;121.88;43.05;;;;;;;-0.43;100.00;102413.47;5076561;28;20093;-72
2023/01/25 08:33:45;;;;;;;115.50;40.28;;;;;;;-0.43;100.00;102413.47;5080282;28;20081;-71
2023/01/25 08:36:11;;;;;;;111.10;39.22;;;;;;;-0.42;100.00;102417.88;5073668;28;20044;-71
2023/01/25 08:38:36;;;;;;;110.38;37.05;;;;;;;-0.46;100.00;102404.59;5063342;28;20058;-71
2023/01/25 08:41:06;;;;;;;112.30;39.15;;;;;;;-0.47;100.00;102412.97;5061534;28;20056;-71
2023/01/25 08:43:32;;;;;;;124.80;42.70;;;;;;;-0.47;100.00;102412.97;5059244;28;20076;-71
2023/01/25 08:45:57;;;;;;;126.07;42.83;;;;;;;-0.50;100.00;102410.59;5033789;28;20031;-71
2023/01/25 08:48:23;;;;;;;119.30;41.58;;;;;;;-0.48;100.00;102414.84;5084647;28;20024;-71
2023/01/25 08:50:48;;;;;;;113.70;39.97;;;;;;;-0.50;100.00;102416.91;5097873;28;20032;-71
2023/01/25 08:53:14;;;;;;;114.80;39.45;;;;;;;-0.50;100.00;102408.72;5092150;28;20020;-71
2023/01/25 08:55:41;;;;;;;114.05;37.88;;;;;;;-0.52;100.00;102408.03;5059493;28;20024;-71
2023/01/25 08:58:11;;;;;;;118.80;37.95;;;;;;;-0.52;100.00;102416.22;5065002;28;20036;-71
2023/01/25 09:00:37;;;;;;;111.25;37.35;;;;;;;-0.55;100.00;102415.72;5053532;28;20035;-71
2023/01/25 09:03:03;;;;;;;119.03;37.90;;;;;;;-0.52;100.00;102410.75;5082717;28;20110;-71
2023/01/25 09:05:28;;;;;;;121.38;40.67;;;;;;;-0.51;100.00;102407.00;5071617;28;20039;-72
2023/01/25 09:07:54;;;;;;;109.15;37.30;;;;;;;-0.49;100.00;102409.56;5090411;28;20020;-72
2023/01/25 09:10:19;;;;;;;109.30;40.13;;;;;;;-0.49;100.00;102410.41;5059385;28;20031;-71
2023/01/25 09:12:45;;;;;;;111.22;40.63;;;;;;;-0.49;100.00;102410.41;5079387;28;20031;-71
2023/01/25 09:15:10;;;;;;;116.20;39.80;;;;;;;-0.46;100.00;102417.41;5082940;28;20125;-71
2023/01/25 09:17:37;;;;;;;115.68;40.92;;;;;;;-0.43;100.00;102408.84;5060099;28;20396;-72
2023/01/25 09:20:06;;;;;;;105.00;36.20;;;;;;;-0.46;100.00;102403.75;5066673;28;20019;-71
2023/01/25 09:22:31;;;;;;;106.50;36.42;;;;;;;-0.47;100.00;102411.09;5060143;28;20028;-71
2023/01/25 09:24:57;;;;;;;107.20;36.80;;;;;;;-0.45;100.00;102413.63;5096173;28;20035;-71
2023/01/25 09:27:22;;;;;;;103.15;36.42;;;;;;;-0.44;100.00;102401.72;5091806;28;20039;-71
2023/01/25 09:29:48;;;;;;;101.93;35.10;;;;;;;-0.42;100.00;102404.25;5062571;28;20023;-71
2023/01/25 09:32:13;;;;;;;105.63;35.22;;;;;;;-0.39;100.00;102399.31;5104528;28;20024;-71
2023/01/25 09:34:39;;;;;;;110.63;38.15;;;;;;;-0.39;100.00;102404.78;5092487;28;20024;-71
2023/01/25 09:37:05;;;;;;;107.57;37.17;;;;;;;-0.38;100.00;102406.47;5070874;28;20083;-72
2023/01/25 09:39:30;;;;;;;99.97;34.05;;;;;;;-0.41;100.00;102415.00;5092674;28;20573;-71
2023/01/25 09:41:58;;;;;;;101.75;34.67;;;;;;;-0.38;100.00;102406.47;5095863;28;20556;-71
2023/01/25 09:44:33;;;;;;;101.68;35.60;;;;;;;-0.36;100.00;102404.41;5095759;28;20028;-71
2023/01/25 09:47:01;;;;;;;98.63;35.38;;;;;;;-0.36;100.00;102404.41;5093557;28;20122;-71
2023/01/25 09:50:04;;;;;;;103.40;35.00;;;;;;;-0.35;100.00;102397.91;5066160;28;20081;-72
2023/01/25 09:52:52;;;;;;;114.72;36.72;;;;;;;-0.38;100.00;102400.16;5085405;28;20031;-71
2023/01/25 09:55:18;;;;;;;100.90;34.00;;;;;;;-0.38;100.00;102395.53;5078546;28;20141;-71
2023/01/25 09:57:44;;;;;;;107.20;32.60;;;;;;;-0.42;100.00;102388.72;5072132;28;20036;-71
2023/01/25 10:00:25;;;;;;;108.47;35.70;;;;;;;-0.40;100.00;102392.13;5077890;28;20040;-72
2023/01/25 10:02:54;;;;;;;101.05;33.70;;;;;;;-0.39;100.00;102393.84;5104312;28;20040;-72
2023/01/25 10:05:22;;;;;;;109.63;34.45;;;;;;;-0.40;100.00;102389.41;5073993;28;20420;-72
2023/01/25 10:08:16;;;;;;;103.75;34.60;;;;;;;-0.38;100.00;102394.69;5074761;28;20034;-72
2023/01/25 10:10:42;;;;;;;110.72;34.17;;;;;;;-0.38;100.00;102394.69;5071903;28;20028;-72
2023/01/25 10:13:12;;;;;;;104.18;35.47;;;;;;;-0.36;100.00;102390.75;5065248;28;20427;-72
2023/01/25 10:15:43;;;;;;;108.10;34.55;;;;;;;-0.31;100.00;102388.31;5095149;28;20036;-72
2023/01/25 10:18:24;;;;;;;99.32;33.83;;;;;;;-0.30;100.00;102389.22;5045364;28;20028;-72
2023/01/25 10:20:54;;;;;;;109.35;34.58;;;;;;;-0.29;100.00;102380.81;5074928;28;20028;-72
2023/01/25 10:23:41;;;;;;;117.30;37.08;;;;;;;-0.24;100.00;102380.31;5068400;28;20032;-71
2023/01/25 10:26:18;;;;;;;111.53;35.65;;;;;;;-0.21;100.00;102379.94;5096870;28;20866;-71
2023/01/25 10:28:56;;;;;;;111.00;35.88;;;;;;;-0.21;100.00;102377.22;5071113;28;20032;-72
2023/01/25 10:31:27;;;;;;;105.93;33.90;;;;;;;-0.17;100.00;102381.28;5102112;28;20031;-71
2023/01/25 10:33:53;;;;;;;98.97;34.22;;;;;;;-0.18;100.00;102378.75;5068264;28;20028;-72
2023/01/25 10:36:22;;;;;;;115.28;36.60;;;;;;;-0.10;100.00;102367.78;5087767;28;20032;-72
2023/01/25 10:38:56;;;;;;;112.72;38.00;;;;;;;-0.09;100.00;102366.75;5090406;28;20083;-72
2023/01/25 10:41:25;;;;;;;112.38;36.20;;;;;;;-0.07;100.00;102365.53;5082817;28;20028;-72
2023/01/25 10:44:20;;;;;;;104.88;36.00;;;;;;;-0.08;100.00;102369.31;5076354;28;20031;-72
2023/01/25 10:46:36;;;;;;;106.47;34.38;;;;;;;-0.10;100.00;102370.50;5063935;28;20032;-71
2023/01/25 10:49:19;;;;;;;115.57;36.65;;;;;;;-0.11;100.00;102366.94;5062522;28;20506;-71
2023/01/25 10:51:44;;;;;;;;;;;;;;;-0.07;100.00;102371.00;5048317;28;20055;-71
2023/01/25 10:54:13;;;;;;;107.03;34.10;;;;;;;-0.07;100.00;102367.41;5095438;28;19911;-71
2023/01/25 10:56:39;;;;;;;114.20;36.75;;;;;;;-0.05;100.00;102358.03;5081086;28;20020;-71
2023/01/25 10:59:21;;;;;;;110.15;36.33;;;;;;;-0.02;100.00;102360.41;5062404;28;20038;-71
2023/01/25 11:01:47;;;;;;;105.45;35.50;;;;;;;0.01;100.00;102353.72;5064056;28;20480;-72
2023/01/25 11:04:26;;;;;;;109.88;35.17;;;;;;;0.00;100.00;102335.66;5090916;28;20039;-71